sensor_id;sensor_type;location;lat;lon;timestamp;pressure;altitude;pressure_sealevel;temperature;humidity
24013;BME280;12220;50.194;18.948;2023-02-02T00:02:55;101049.38;;;2.78;81.33
24013;BME280;12220;50.194;18.948;2023-02-02T00:04:57;101047.69;;;2.75;81.49
24013;BME280;12220;50.194;18.948;2023-02-02T00:07:07;101034.26;;;2.72;81.54
24013;BME280;12220;50.194;18.948;2023-02-02T00:09:11;101037.90;;;2.71;81.55
24013;BME280;12220;50.194;18.948;2023-02-02T00:11:14;101046.05;;;2.70;81.60
24013;BME280;12220;50.194;18.948;2023-02-02T00:13:16;101037.99;;;2.68;81.66
24013;BME280;12220;50.194;18.948;2023-02-02T00:15:23;101039.02;;;2.64;81.82
24013;BME280;12220;50.194;18.948;2023-02-02T00:17:25;101049.95;;;2.61;81.89
24013;BME280;12220;50.194;18.948;2023-02-02T00:19:28;101054.50;;;2.59;81.83
24013;BME280;12220;50.194;18.948;2023-02-02T00:21:32;101050.09;;;2.56;81.87
24013;BME280;12220;50.194;18.948;2023-02-02T00:23:37;101051.90;;;2.56;81.91
24013;BME280;12220;50.194;18.948;2023-02-02T00:25:38;101060.91;;;2.56;81.96
24013;BME280;12220;50.194;18.948;2023-02-02T00:27:40;101054.70;;;2.53;81.94
24013;BME280;12220;50.194;18.948;2023-02-02T00:29:41;101056.59;;;2.51;81.96
24013;BME280;12220;50.194;18.948;2023-02-02T00:31:53;101062.91;;;2.50;82.04
24013;BME280;12220;50.194;18.948;2023-02-02T00:33:55;101063.84;;;2.49;82.08
24013;BME280;12220;50.194;18.948;2023-02-02T00:35:57;101060.31;;;2.47;82.21
24013;BME280;12220;50.194;18.948;2023-02-02T00:37:58;101069.44;;;2.42;82.30
24013;BME280;12220;50.194;18.948;2023-02-02T00:40:09;101068.52;;;2.43;82.36
24013;BME280;12220;50.194;18.948;2023-02-02T00:42:10;101079.33;;;2.43;82.39
24013;BME280;12220;50.194;18.948;2023-02-02T00:44:12;101084.73;;;2.43;82.40
24013;BME280;12220;50.194;18.948;2023-02-02T00:46:26;101080.15;;;2.46;82.42
24013;BME280;12220;50.194;18.948;2023-02-02T00:48:27;100865.18;;;1.20;82.44
24013;BME280;12220;50.194;18.948;2023-02-02T00:50:29;101069.39;;;2.44;82.48
24013;BME280;12220;50.194;18.948;2023-02-02T00:52:30;101077.45;;;2.46;82.54
24013;BME280;12220;50.194;18.948;2023-02-02T00:54:32;101080.15;;;2.46;82.50
24013;BME280;12220;50.194;18.948;2023-02-02T00:56:38;101078.38;;;2.44;82.51
24013;BME280;12220;50.194;18.948;2023-02-02T00:58:40;101074.75;;;2.46;82.53
24013;BME280;12220;50.194;18.948;2023-02-02T01:00:41;101072.96;;;2.44;82.54
24013;BME280;12220;50.194;18.948;2023-02-02T01:02:43;101079.28;;;2.45;82.57
24013;BME280;12220;50.194;18.948;2023-02-02T01:04:53;101065.72;;;2.47;82.59
24013;BME280;12220;50.194;18.948;2023-02-02T01:06:55;101075.61;;;2.48;82.63
24013;BME280;12220;50.194;18.948;2023-02-02T01:08:56;101071.02;;;2.50;82.60
24013;BME280;12220;50.194;18.948;2023-02-02T01:11:00;101080.91;;;2.51;82.55
24013;BME280;12220;50.194;18.948;2023-02-02T01:13:08;101078.21;;;2.51;82.57
24013;BME280;12220;50.194;18.948;2023-02-02T01:15:11;101081.83;;;2.50;82.57
24013;BME280;12220;50.194;18.948;2023-02-02T01:17:17;101078.21;;;2.51;82.52
24013;BME280;12220;50.194;18.948;2023-02-02T01:19:19;101089.89;;;2.51;82.50
24013;BME280;12220;50.194;18.948;2023-02-02T01:21:23;101091.73;;;2.51;82.53
24013;BME280;12220;50.194;18.948;2023-02-02T01:23:25;101094.43;;;2.51;82.57
24013;BME280;12220;50.194;18.948;2023-02-02T01:25:27;101089.07;;;2.49;82.54
24013;BME280;12220;50.194;18.948;2023-02-02T01:27:32;101085.42;;;2.50;82.59
24013;BME280;12220;50.194;18.948;2023-02-02T01:29:39;101085.37;;;2.52;82.63
24013;BME280;12220;50.194;18.948;2023-02-02T01:31:43;101091.67;;;2.52;82.63
24013;BME280;12220;50.194;18.948;2023-02-02T01:33:46;101083.52;;;2.54;82.66
24013;BME280;12220;50.194;18.948;2023-02-02T01:35:50;101087.05;;;2.56;82.64
24013;BME280;12220;50.194;18.948;2023-02-02T01:37:55;101095.05;;;2.59;82.64
24013;BME280;12220;50.194;18.948;2023-02-02T01:39:56;101095.91;;;2.61;82.66
24013;BME280;12220;50.194;18.948;2023-02-02T01:46:42;101090.30;;;2.67;82.63
24013;BME280;12220;50.194;18.948;2023-02-02T01:53:37;101094.74;;;2.70;82.69
24013;BME280;12220;50.194;18.948;2023-02-02T01:55:46;101100.15;;;2.70;82.70
24013;BME280;12220;50.194;18.948;2023-02-02T01:58:13;101092.08;;;2.68;82.72
24013;BME280;12220;50.194;18.948;2023-02-02T02:00:08;101094.79;;;2.68;82.73
24013;BME280;12220;50.194;18.948;2023-02-02T02:02:10;101088.42;;;2.69;82.76
24013;BME280;12220;50.194;18.948;2023-02-02T02:04:14;101092.95;;;2.69;82.81
24013;BME280;12220;50.194;18.948;2023-02-02T02:06:18;101094.74;;;2.70;82.83
24013;BME280;12220;50.194;18.948;2023-02-02T02:10:34;101102.80;;;2.71;82.71
24013;BME280;12220;50.194;18.948;2023-02-02T02:12:35;101106.32;;;2.73;82.82
24013;BME280;12220;50.194;18.948;2023-02-02T02:14:48;101113.51;;;2.74;82.83
24013;BME280;12220;50.194;18.948;2023-02-02T02:34:29;101126.05;;;2.77;82.96
24013;BME280;12220;50.194;18.948;2023-02-02T02:38:36;101123.30;;;2.78;82.97
24013;BME280;12220;50.194;18.948;2023-02-02T02:40:47;101133.21;;;2.78;82.98
24013;BME280;12220;50.194;18.948;2023-02-02T02:42:58;101090.66;;;2.55;82.96
24013;BME280;12220;50.194;18.948;2023-02-02T02:45:10;101135.84;;;2.81;82.97
24013;BME280;12220;50.194;18.948;2023-02-02T02:47:14;101142.14;;;2.82;82.99
24013;BME280;12220;50.194;18.948;2023-02-02T02:49:18;101146.57;;;2.84;82.99
24013;BME280;12220;50.194;18.948;2023-02-02T02:53:34;101142.90;;;2.85;82.96
24013;BME280;12220;50.194;18.948;2023-02-02T02:55:53;101145.56;;;2.87;82.94
24013;BME280;12220;50.194;18.948;2023-02-02T02:58:01;101150.09;;;2.86;82.93
24013;BME280;12220;50.194;18.948;2023-02-02T03:02:31;101155.41;;;2.89;82.90
24013;BME280;12220;50.194;18.948;2023-02-02T03:07:16;101158.01;;;2.92;82.86
24013;BME280;12220;50.194;18.948;2023-02-02T03:09:29;101158.91;;;2.93;82.92
24013;BME280;12220;50.194;18.948;2023-02-02T03:11:36;101151.72;;;2.92;83.04
24013;BME280;12220;50.194;18.948;2023-02-02T03:13:39;101155.26;;;2.94;82.88
24013;BME280;12220;50.194;18.948;2023-02-02T03:15:42;101156.11;;;2.96;82.90
24013;BME280;12220;50.194;18.948;2023-02-02T03:17:46;101152.45;;;2.97;82.91
24013;BME280;12220;50.194;18.948;2023-02-02T03:19:49;101154.18;;;3.00;82.88
24013;BME280;12220;50.194;18.948;2023-02-02T03:21:50;101156.01;;;2.99;82.86
24013;BME280;12220;50.194;18.948;2023-02-02T03:23:52;101153.26;;;3.01;82.89
24013;BME280;12220;50.194;18.948;2023-02-02T03:25:57;101159.44;;;3.04;82.78
24013;BME280;12220;50.194;18.948;2023-02-02T03:28:05;101155.81;;;3.05;82.76
24013;BME280;12220;50.194;18.948;2023-02-02T03:30:09;101162.07;;;3.07;82.67
24013;BME280;12220;50.194;18.948;2023-02-02T03:32:11;101160.19;;;3.09;82.66
24013;BME280;12220;50.194;18.948;2023-02-02T03:34:15;101169.13;;;3.11;82.61
24013;BME280;12220;50.194;18.948;2023-02-02T03:36:16;101167.28;;;3.13;82.54
24013;BME280;12220;50.194;18.948;2023-02-02T03:38:18;101170.80;;;3.16;82.51
24013;BME280;12220;50.194;18.948;2023-02-02T03:40:19;101173.51;;;3.16;82.45
24013;BME280;12220;50.194;18.948;2023-02-02T03:42:27;101171.71;;;3.16;82.46
24013;BME280;12220;50.194;18.948;2023-02-02T03:44:29;101177.08;;;3.18;82.39
24013;BME280;12220;50.194;18.948;2023-02-02T03:46:30;101169.83;;;3.18;82.32
24013;BME280;12220;50.194;18.948;2023-02-02T03:48:36;101171.66;;;3.18;82.27
24013;BME280;12220;50.194;18.948;2023-02-02T03:50:42;101162.69;;;3.16;82.23
24013;BME280;12220;50.194;18.948;2023-02-02T03:52:44;101170.80;;;3.16;82.18
24013;BME280;12220;50.194;18.948;2023-02-02T03:54:45;101168.10;;;3.16;82.15
24013;BME280;12220;50.194;18.948;2023-02-02T03:56:47;101167.23;;;3.15;82.13
24013;BME280;12220;50.194;18.948;2023-02-02T03:58:58;101169.93;;;3.15;82.15
24013;BME280;12220;50.194;18.948;2023-02-02T04:01:05;101164.52;;;3.15;82.10
24013;BME280;12220;50.194;18.948;2023-02-02T04:03:07;101160.84;;;3.18;82.10
24013;BME280;12220;50.194;18.948;2023-02-02T04:05:09;101167.12;;;3.18;82.09
24013;BME280;12220;50.194;18.948;2023-02-02T04:07:13;101161.76;;;3.17;82.05
24013;BME280;12220;50.194;18.948;2023-02-02T04:09:14;101158.07;;;3.19;82.00
24013;BME280;12220;50.194;18.948;2023-02-02T04:11:18;101163.38;;;3.22;81.95
24013;BME280;12220;50.194;18.948;2023-02-02T04:15:59;101153.32;;;3.26;81.84
24013;BME280;12220;50.194;18.948;2023-02-02T04:18:01;101153.27;;;3.27;81.76
24013;BME280;12220;50.194;18.948;2023-02-02T04:20:11;101155.88;;;3.30;81.74
24013;BME280;12220;50.194;18.948;2023-02-02T04:25:03;101157.55;;;3.35;81.58
24013;BME280;12220;50.194;18.948;2023-02-02T04:27:15;101144.92;;;3.35;81.50
24013;BME280;12220;50.194;18.948;2023-02-02T04:29:17;101142.20;;;3.35;81.45
24013;BME280;12220;50.194;18.948;2023-02-02T04:35:58;100874.94;;;1.84;80.98
24013;BME280;12220;50.194;18.948;2023-02-02T04:38:03;101139.50;;;3.35;81.01
24013;BME280;12220;50.194;18.948;2023-02-02T04:40:05;101145.84;;;3.34;80.88
24013;BME280;12220;50.194;18.948;2023-02-02T04:42:07;101140.48;;;3.33;80.74
24013;BME280;12220;50.194;18.948;2023-02-02T04:44:14;101133.30;;;3.31;80.68
24013;BME280;12220;50.194;18.948;2023-02-02T04:46:16;101136.98;;;3.29;80.54
24013;BME280;12220;50.194;18.948;2023-02-02T04:48:18;101148.72;;;3.29;80.52
24013;BME280;12220;50.194;18.948;2023-02-02T04:50:20;101146.88;;;3.30;80.51
24013;BME280;12220;50.194;18.948;2023-02-02T04:52:21;101151.31;;;3.33;80.48
24013;BME280;12220;50.194;18.948;2023-02-02T04:54:27;101144.07;;;3.33;80.46
24013;BME280;12220;50.194;18.948;2023-02-02T04:56:31;101137.73;;;3.34;80.36
24013;BME280;12220;50.194;18.948;2023-02-02T04:58:33;101141.30;;;3.35;80.17
24013;BME280;12220;50.194;18.948;2023-02-02T05:00:34;101144.07;;;3.33;80.01
24013;BME280;12220;50.194;18.948;2023-02-02T05:02:42;101144.07;;;3.33;79.78
24013;BME280;12220;50.194;18.948;2023-02-02T05:04:46;101135.95;;;3.33;79.61
24013;BME280;12220;50.194;18.948;2023-02-02T05:06:53;101143.20;;;3.33;79.20
24013;BME280;12220;50.194;18.948;2023-02-02T05:08:54;101141.47;;;3.30;78.86
24013;BME280;12220;50.194;18.948;2023-02-02T05:10:57;101137.78;;;3.33;78.80
24013;BME280;12220;50.194;18.948;2023-02-02T05:12:58;101140.48;;;3.33;78.83
24013;BME280;12220;50.194;18.948;2023-02-02T05:15:00;101145.84;;;3.34;78.79
24013;BME280;12220;50.194;18.948;2023-02-02T05:17:05;101145.74;;;3.37;78.80
24013;BME280;12220;50.194;18.948;2023-02-02T05:19:12;101146.55;;;3.39;78.69
24013;BME280;12220;50.194;18.948;2023-02-02T05:21:16;101145.63;;;3.40;78.40
24013;BME280;12220;50.194;18.948;2023-02-02T05:23:18;101146.54;;;3.41;78.01
24013;BME280;12220;50.194;18.948;2023-02-02T05:25:23;101132.10;;;3.40;77.35
24013;BME280;12220;50.194;18.948;2023-02-02T05:29:21;101127.26;;;3.50;76.57
24013;BME280;12220;50.194;18.948;2023-02-02T05:31:22;101125.38;;;3.52;76.90
24013;BME280;12220;50.194;18.948;2023-02-02T05:33:24;101124.44;;;3.53;76.50
24013;BME280;12220;50.194;18.948;2023-02-02T05:35:36;101120.69;;;3.57;76.57
24013;BME280;12220;50.194;18.948;2023-02-02T05:37:38;101123.34;;;3.59;76.60
24013;BME280;12220;50.194;18.948;2023-02-02T05:39:39;101128.70;;;3.60;75.82
24013;BME280;12220;50.194;18.948;2023-02-02T05:41:41;101128.66;;;3.62;75.59
24013;BME280;12220;50.194;18.948;2023-02-02T05:46:18;101130.43;;;3.63;75.11
24013;BME280;12220;50.194;18.948;2023-02-02T05:48:20;100848.20;;;1.77;75.05
24013;BME280;12220;50.194;18.948;2023-02-02T05:50:21;101132.13;;;3.65;75.11
24013;BME280;12220;50.194;18.948;2023-02-02T05:52:24;101123.06;;;3.66;75.15
24013;BME280;12220;50.194;18.948;2023-02-02T05:54:28;101132.10;;;3.67;75.03
24013;BME280;12220;50.194;18.948;2023-02-02T05:56:29;101131.20;;;3.66;75.04
24013;BME280;12220;50.194;18.948;2023-02-02T05:58:31;101136.60;;;3.66;75.14
24013;BME280;12220;50.194;18.948;2023-02-02T06:00:36;101136.60;;;3.66;75.19
24013;BME280;12220;50.194;18.948;2023-02-02T06:02:43;101133.08;;;3.64;75.34
24013;BME280;12220;50.194;18.948;2023-02-02T06:04:47;101133.95;;;3.65;75.56
24013;BME280;12220;50.194;18.948;2023-02-02T06:06:49;101130.43;;;3.63;75.62
24013;BME280;12220;50.194;18.948;2023-02-02T06:08:50;101134.07;;;3.62;75.68
24013;BME280;12220;50.194;18.948;2023-02-02T06:10:58;101121.56;;;3.58;75.87
24013;BME280;12220;50.194;18.948;2023-02-02T06:12:59;101128.03;;;3.54;76.01
24013;BME280;12220;50.194;18.948;2023-02-02T06:15:01;101120.01;;;3.51;76.06
24013;BME280;12220;50.194;18.948;2023-02-02T06:17:02;101125.54;;;3.47;76.08
24013;BME280;12220;50.194;18.948;2023-02-02T06:19:13;101127.42;;;3.45;76.20
24013;BME280;12220;50.194;18.948;2023-02-02T06:21:15;101123.98;;;3.40;76.29
24013;BME280;12220;50.194;18.948;2023-02-02T06:23:19;101125.92;;;3.37;76.50
24013;BME280;12220;50.194;18.948;2023-02-02T06:25:21;101131.38;;;3.35;76.55
24013;BME280;12220;50.194;18.948;2023-02-02T06:27:28;101135.07;;;3.33;76.67
24013;BME280;12220;50.194;18.948;2023-02-02T06:29:29;101132.36;;;3.33;76.69
24013;BME280;12220;50.194;18.948;2023-02-02T06:31:31;101146.00;;;3.29;76.73
24013;BME280;12220;50.194;18.948;2023-02-02T06:33:34;101136.93;;;3.30;76.75
24013;BME280;12220;50.194;18.948;2023-02-02T06:35:43;101142.34;;;3.30;76.83
24013;BME280;12220;50.194;18.948;2023-02-02T06:37:45;101149.70;;;3.27;76.87
24013;BME280;12220;50.194;18.948;2023-02-02T06:39:47;101156.99;;;3.25;76.83
24013;BME280;12220;50.194;18.948;2023-02-02T06:41:48;101162.48;;;3.22;76.88
24013;BME280;12220;50.194;18.948;2023-02-02T06:43:58;101143.64;;;3.19;77.00
24013;BME280;12220;50.194;18.948;2023-02-02T06:46:00;101155.42;;;3.18;77.04
24013;BME280;12220;50.194;18.948;2023-02-02T06:48:01;101149.11;;;3.17;77.27
24013;BME280;12220;50.194;18.948;2023-02-02T06:50:10;101159.98;;;3.16;77.43
24013;BME280;12220;50.194;18.948;2023-02-02T06:52:13;101151.97;;;3.12;77.59
24013;BME280;12220;50.194;18.948;2023-02-02T06:54:15;101146.72;;;3.08;77.96
24013;BME280;12220;50.194;18.948;2023-02-02T06:56:16;101145.91;;;3.04;78.10
24013;BME280;12220;50.194;18.948;2023-02-02T06:58:18;101142.27;;;3.05;78.10
24013;BME280;12220;50.194;18.948;2023-02-02T07:00:28;101143.25;;;3.03;78.37
24013;BME280;12220;50.194;18.948;2023-02-02T07:02:30;101137.90;;;3.01;78.59
24013;BME280;12220;50.194;18.948;2023-02-02T07:04:32;101240.80;;;2.98;78.89
24013;BME280;12220;50.194;18.948;2023-02-02T07:06:34;101141.63;;;2.97;78.96
24013;BME280;12220;50.194;18.948;2023-02-02T07:08:44;101133.48;;;2.99;79.03
24013;BME280;12220;50.194;18.948;2023-02-02T07:10:45;101137.13;;;2.98;79.12
24013;BME280;12220;50.194;18.948;2023-02-02T07:12:47;101143.40;;;2.98;79.19
24013;BME280;12220;50.194;18.948;2023-02-02T07:14:49;101134.41;;;2.98;79.40
24013;BME280;12220;50.194;18.948;2023-02-02T07:16:58;101137.07;;;2.99;79.32
24013;BME280;12220;50.194;18.948;2023-02-02T07:19:00;101132.58;;;2.98;79.42
24013;BME280;12220;50.194;18.948;2023-02-02T07:21:02;101138.92;;;2.97;79.50
24013;BME280;12220;50.194;18.948;2023-02-02T07:23:03;101140.59;;;3.01;79.49
24013;BME280;12220;50.194;18.948;2023-02-02T07:25:13;101146.06;;;3.00;79.64
24013;BME280;12220;50.194;18.948;2023-02-02T07:27:15;101139.77;;;2.99;79.67
24013;BME280;12220;50.194;18.948;2023-02-02T07:29:16;101137.95;;;3.00;79.70
24013;BME280;12220;50.194;18.948;2023-02-02T07:31:23;101139.88;;;2.96;79.92
24013;BME280;12220;50.194;18.948;2023-02-02T07:33:29;101139.88;;;2.96;80.00
24013;BME280;12220;50.194;18.948;2023-02-02T07:35:35;101144.44;;;2.94;80.08
24013;BME280;12220;50.194;18.948;2023-02-02T07:37:36;101142.64;;;2.94;80.07
24013;BME280;12220;50.194;18.948;2023-02-02T07:39:38;101145.39;;;2.93;80.17
24013;BME280;12220;50.194;18.948;2023-02-02T07:41:47;101146.22;;;2.95;80.16
24013;BME280;12220;50.194;18.948;2023-02-02T07:43:49;101148.10;;;2.93;80.24
24013;BME280;12220;50.194;18.948;2023-02-02T07:45:51;101147.14;;;2.94;80.20
24013;BME280;12220;50.194;18.948;2023-02-02T07:47:58;101138.20;;;2.92;80.24
24013;BME280;12220;50.194;18.948;2023-02-02T07:50:00;101131.92;;;2.91;80.28
24013;BME280;12220;50.194;18.948;2023-02-02T07:52:02;101138.20;;;2.92;80.30
24013;BME280;12220;50.194;18.948;2023-02-02T07:54:03;101135.45;;;2.93;80.31
24013;BME280;12220;50.194;18.948;2023-02-02T07:58:16;101132.80;;;2.92;80.53
24013;BME280;12220;50.194;18.948;2023-02-02T08:00:18;101140.85;;;2.93;80.54
24013;BME280;12220;50.194;18.948;2023-02-02T08:02:20;101135.34;;;2.96;80.52
24013;BME280;12220;50.194;18.948;2023-02-02T08:04:24;101142.53;;;2.98;80.63
24013;BME280;12220;50.194;18.948;2023-02-02T08:06:32;101145.24;;;2.98;80.62
24013;BME280;12220;50.194;18.948;2023-02-02T08:08:34;101151.47;;;3.00;80.53
24013;BME280;12220;50.194;18.948;2023-02-02T08:10:35;101147.84;;;3.01;80.60
24013;BME280;12220;50.194;18.948;2023-02-02T08:12:37;101141.50;;;3.02;80.59
24013;BME280;12220;50.194;18.948;2023-02-02T08:14:45;101154.02;;;3.04;80.57
24013;BME280;12220;50.194;18.948;2023-02-02T08:16:47;101151.37;;;3.03;80.61
24013;BME280;12220;50.194;18.948;2023-02-02T08:18:49;100920.34;;;1.71;80.43
24013;BME280;12220;50.194;18.948;2023-02-02T08:20:51;101134.30;;;3.01;80.65
24013;BME280;12220;50.194;18.948;2023-02-02T08:23:00;101148.72;;;3.01;80.69
24013;BME280;12220;50.194;18.948;2023-02-02T08:25:01;101155.16;;;2.97;80.92
24013;BME280;12220;50.194;18.948;2023-02-02T08:27:03;101154.18;;;3.00;80.95
24013;BME280;12220;50.194;18.948;2023-02-02T08:29:06;101149.57;;;3.03;80.89
24013;BME280;12220;50.194;18.948;2023-02-02T08:31:21;101152.33;;;3.02;81.14
24013;BME280;12220;50.194;18.948;2023-02-02T08:33:22;101119.52;;;2.84;81.12
24013;BME280;12220;50.194;18.948;2023-02-02T08:35:24;101153.14;;;3.04;81.27
24013;BME280;12220;50.194;18.948;2023-02-02T08:37:25;101145.85;;;3.06;81.37
24013;BME280;12220;50.194;18.948;2023-02-02T08:39:30;101152.95;;;3.10;81.34
24013;BME280;12220;50.194;18.948;2023-02-02T08:41:32;101148.44;;;3.10;81.44
24013;BME280;12220;50.194;18.948;2023-02-02T08:43:34;101151.97;;;3.12;81.52
24013;BME280;12220;50.194;18.948;2023-02-02T08:45:36;101151.05;;;3.13;81.49
24013;BME280;12220;50.194;18.948;2023-02-02T08:47:45;101150.02;;;3.18;81.49
24013;BME280;12220;50.194;18.948;2023-02-02T08:49:46;101158.95;;;3.20;81.47
24013;BME280;12220;50.194;18.948;2023-02-02T08:51:48;101162.46;;;3.23;81.50
24013;BME280;12220;50.194;18.948;2023-02-02T08:53:50;101169.57;;;3.26;81.46
24013;BME280;12220;50.194;18.948;2023-02-02T08:56:08;101171.35;;;3.27;81.41
24013;BME280;12220;50.194;18.948;2023-02-02T08:58:10;101169.46;;;3.29;81.35
24013;BME280;12220;50.194;18.948;2023-02-02T09:00:12;101187.38;;;3.33;81.27
24013;BME280;12220;50.194;18.948;2023-02-02T09:02:14;101185.53;;;3.35;81.26
24013;BME280;12220;50.194;18.948;2023-02-02T09:04:17;101181.85;;;3.36;81.38
24013;BME280;12220;50.194;18.948;2023-02-02T09:06:19;101194.57;;;3.34;81.46
24013;BME280;12220;50.194;18.948;2023-02-02T09:08:24;101189.16;;;3.34;81.54
24013;BME280;12220;50.194;18.948;2023-02-02T09:10:25;101197.33;;;3.33;81.52
24013;BME280;12220;50.194;18.948;2023-02-02T09:12:33;101190.04;;;3.35;81.53
24013;BME280;12220;50.194;18.948;2023-02-02T09:14:37;101189.27;;;3.31;81.53
24013;BME280;12220;50.194;18.948;2023-02-02T09:16:41;101197.44;;;3.29;81.61
24013;BME280;12220;50.194;18.948;2023-02-02T09:18:44;101205.66;;;3.26;81.81
24013;BME280;12220;50.194;18.948;2023-02-02T09:20:50;101198.52;;;3.24;81.87
24013;BME280;12220;50.194;18.948;2023-02-02T09:22:54;101205.78;;;3.22;82.02
24013;BME280;12220;50.194;18.948;2023-02-02T09:24:57;101199.59;;;3.18;82.08
24013;BME280;12220;50.194;18.948;2023-02-02T09:27:01;101211.40;;;3.16;82.10
24013;BME280;12220;50.194;18.948;2023-02-02T09:29:04;101207.87;;;3.13;82.14
24013;BME280;12220;50.194;18.948;2023-02-02T10:20:16;101249.98;;;3.51;84.16
24013;BME280;12220;50.194;18.948;2023-02-02T10:22:23;101263.37;;;3.55;84.09
24013;BME280;12220;50.194;18.948;2023-02-02T10:24:28;101265.10;;;3.58;84.05
24013;BME280;12220;50.194;18.948;2023-02-02T10:26:42;101268.60;;;3.61;83.99
24013;BME280;12220;50.194;18.948;2023-02-02T10:31:00;101277.55;;;3.63;83.88
24013;BME280;12220;50.194;18.948;2023-02-02T10:33:06;101282.91;;;3.65;83.70
24013;BME280;12220;50.194;18.948;2023-02-02T10:39:58;101275.66;;;3.65;83.52
24013;BME280;12220;50.194;18.948;2023-02-02T10:42:25;101290.16;;;3.64;83.42
24013;BME280;12220;50.194;18.948;2023-02-02T10:44:42;101285.73;;;3.62;83.30
24013;BME280;12220;50.194;18.948;2023-02-02T10:46:53;101283.27;;;3.54;83.25
24013;BME280;12220;50.194;18.948;2023-02-02T10:51:22;101302.33;;;3.51;83.16
24013;BME280;12220;50.194;18.948;2023-02-02T10:53:27;101314.13;;;3.48;83.21
24013;BME280;12220;50.194;18.948;2023-02-02T10:55:37;101289.77;;;3.48;83.13
24013;BME280;12220;50.194;18.948;2023-02-02T11:00:10;101306.89;;;3.49;83.48
24013;BME280;12220;50.194;18.948;2023-02-02T11:02:18;101296.91;;;3.51;83.53
24013;BME280;12220;50.194;18.948;2023-02-02T11:04:20;101309.41;;;3.55;83.58
24013;BME280;12220;50.194;18.948;2023-02-02T11:06:35;101311.93;;;3.61;83.68
24013;BME280;12220;50.194;18.948;2023-02-02T11:08:49;101308.22;;;3.64;83.69
24013;BME280;12220;50.194;18.948;2023-02-02T11:10:59;101314.38;;;3.69;83.71
24013;BME280;12220;50.194;18.948;2023-02-02T11:13:05;101317.00;;;3.72;83.73
24013;BME280;12220;50.194;18.948;2023-02-02T11:17:23;101202.25;;;2.91;83.54
24013;BME280;12220;50.194;18.948;2023-02-02T11:19:29;101313.16;;;3.79;83.84
24013;BME280;12220;50.194;18.948;2023-02-02T11:21:36;101316.68;;;3.81;83.87
24013;BME280;12220;50.194;18.948;2023-02-02T11:26:09;101320.88;;;3.92;84.06
24013;BME280;12220;50.194;18.948;2023-02-02T11:28:17;101327.02;;;3.97;84.12
24013;BME280;12220;50.194;18.948;2023-02-02T11:32:31;101331.20;;;4.07;84.02
24013;BME280;12220;50.194;18.948;2023-02-02T11:34:33;101330.11;;;4.13;83.97
24013;BME280;12220;50.194;18.948;2023-02-02T11:36:34;101339.97;;;4.15;83.94
24013;BME280;12220;50.194;18.948;2023-02-02T11:38:36;101332.66;;;4.17;83.87
24013;BME280;12220;50.194;18.948;2023-02-02T11:40:44;101329.84;;;4.21;83.83
24013;BME280;12220;50.194;18.948;2023-02-02T11:42:46;101338.77;;;4.24;83.78
24013;BME280;12220;50.194;18.948;2023-02-02T11:44:50;101341.42;;;4.26;83.67
24013;BME280;12220;50.194;18.948;2023-02-02T11:46:56;101325.05;;;4.29;83.61
24013;BME280;12220;50.194;18.948;2023-02-02T11:49:05;101339.48;;;4.29;83.54
24013;BME280;12220;50.194;18.948;2023-02-02T11:53:31;101349.34;;;4.32;83.55
24013;BME280;12220;50.194;18.948;2023-02-02T11:55:43;101342.05;;;4.34;83.48
24013;BME280;12220;50.194;18.948;2023-02-02T12:00:06;101345.65;;;4.34;83.30
24013;BME280;12220;50.194;18.948;2023-02-02T12:02:22;101343.86;;;4.33;82.98
24013;BME280;12220;50.194;18.948;2023-02-02T12:04:24;101356.60;;;4.31;82.95
24013;BME280;12220;50.194;18.948;2023-02-02T12:06:35;101349.34;;;4.32;82.85
24013;BME280;12220;50.194;18.948;2023-02-02T12:08:46;101364.68;;;4.33;82.81
24013;BME280;12220;50.194;18.948;2023-02-02T12:11:02;101369.19;;;4.32;82.70
24013;BME280;12220;50.194;18.948;2023-02-02T12:13:20;101363.88;;;4.29;82.48
24013;BME280;12220;50.194;18.948;2023-02-02T12:17:42;101381.98;;;4.29;82.45
24013;BME280;12220;50.194;18.948;2023-02-02T12:19:56;101377.48;;;4.28;82.34
24013;BME280;12220;50.194;18.948;2023-02-02T12:22:27;101388.44;;;4.25;82.26
24013;BME280;12220;50.194;18.948;2023-02-02T12:26:38;101394.72;;;4.27;82.22
24013;BME280;12220;50.194;18.948;2023-02-02T12:33:22;101382.15;;;4.24;82.14
24013;BME280;12220;50.194;18.948;2023-02-02T12:35:39;101387.52;;;4.26;82.03
24013;BME280;12220;50.194;18.948;2023-02-02T12:37:52;101400.14;;;4.27;82.06
24013;BME280;12220;50.194;18.948;2023-02-02T12:47:05;101407.21;;;4.31;81.85
24013;BME280;12220;50.194;18.948;2023-02-02T12:51:43;101418.00;;;4.32;81.86
24013;BME280;12220;50.194;18.948;2023-02-02T13:01:06;101426.77;;;4.41;81.78
24013;BME280;12220;50.194;18.948;2023-02-02T13:08:08;101432.10;;;4.44;81.62
24013;BME280;12220;50.194;18.948;2023-02-02T13:12:29;101436.59;;;4.45;81.53
24013;BME280;12220;50.194;18.948;2023-02-02T13:14:41;101441.96;;;4.46;81.52
24013;BME280;12220;50.194;18.948;2023-02-02T13:16:46;101433.72;;;4.49;81.54
24013;BME280;12220;50.194;18.948;2023-02-02T13:19:00;101429.14;;;4.51;81.54
24013;BME280;12220;50.194;18.948;2023-02-02T13:21:07;101427.20;;;4.55;81.56
24013;BME280;12220;50.194;18.948;2023-02-02T13:23:24;101439.67;;;4.61;81.57
24013;BME280;12220;50.194;18.948;2023-02-02T13:25:33;101443.15;;;4.64;81.47
24013;BME280;12220;50.194;18.948;2023-02-02T13:27:38;101444.77;;;4.70;81.47
24013;BME280;12220;50.194;18.948;2023-02-02T13:29:54;101445.46;;;4.77;81.47
24013;BME280;12220;50.194;18.948;2023-02-02T13:32:05;101443.45;;;4.82;81.34
24013;BME280;12220;50.194;18.948;2023-02-02T13:36:27;101444.96;;;4.91;80.90
24013;BME280;12220;50.194;18.948;2023-02-02T13:38:35;101438.59;;;4.92;80.72